Aviation Digital Data Service (ADDS)

Output produced by METARs form (1202 UTC 21 September 2018)
found at http://www.aviationweather.gov/metar/data/
 
Forecast for: WBGR (MIRI/KALIMANTAN , MY)
Text: TAF WBGR 211100Z 2112/2212 28007KT 9999 FEW016
Forecast period: 1200 UTC 21 September 2018 to 1200 UTC 22 September 2018
Forecast type: FROM: standard forecast or significant change
Winds: from the W (280 degrees) at 8 MPH (7 knots; 3.6 m/s)
Visibility: 6 or more miles 10+ km)
Ceiling: at least 12,000 feet AGL
Clouds: few clouds at 1600 feet AGL
Weather: no significant weather forecast for this period
Text: TEMPO 2112/2116 4000 TSRA FEW015CB
Forecast period: 1200 to 1600 UTC 21 September 2018
Forecast type: TEMPORARY: The following changes expected for less than half the time period
Visibility: 2.49 miles (4.01 km)
Ceiling: at least 12,000 feet AGL
Clouds: few clouds at 1500 feet AGL
Weather: TSRA  (rain associated with thunderstorm(s))